Etusivu
METAR-TAF:

METAR-TAF

Lentoasemat :

St. Paul Downtown Airport (Holman Field)

Saint Paul, Minnesota, Yhdysvallat

Leveyspiiri: 44-55-49N, Pituuspiiri: 093-02-53W, korkeus merenpinnasta: 214 m

Tämänhetkinen sää

Tämä raportti tehtiin 9 minuuttia sitten, kello 09.53 UTC
Tuuli 9 kn pohjoisen/luoteesta
Lämpötila -16°C
Kosteus 60%
Ilmanpaine 1037 hPa
Näkyvyys: 16.1 km
Hajonneita pilviä 9000 ft:n korkeudessa

METAR: KSTP 190953Z AUTO 33009KT 10SM BKN090 M16/M22 A3061 RMK AO2 SLP380 T11561217 $

Aika: 04:02 (10:02 UTC)


TAF: puuttuu

Säähavainnot ja -ennusteet yli 4000 lentoasemalta (METAR- ja TAF-raportit).

Käytössä olevat sääasemat on merkitty karttaan keltaisilla ja punaisilla pisteillä.

Aseta hiiri pisteen päälle nähdäksesi sääaseman nimen.

Klikkaa sitten nähdäksesi säähavainnot ja -ennusteet.

Kartan vaihtaminen: klikkaa mustalla rastilla varustettuja vihreitä pisteitä, niin voit zoomata sisään; viivalla varustettua vihreää pistettä, niin voit zoomata ulos tai vihreitä nuolia, niin pääset viereisille kartoille.


METAR-TAF: